sensor_id;sensor_type;location;lat;lon;timestamp;pressure;altitude;pressure_sealevel;temperature;humidity
33189;BME280;52601;53.070;10.600;2023-01-27T00:01:47;101982.34;;;4.12;100.00
33189;BME280;52601;53.070;10.600;2023-01-27T00:04:34;101984.06;;;4.22;100.00
33189;BME280;52601;53.070;10.600;2023-01-27T00:07:19;101985.78;;;4.26;100.00
33189;BME280;52601;53.070;10.600;2023-01-27T00:10:06;101985.78;;;4.26;100.00
33189;BME280;52601;53.070;10.600;2023-01-27T00:12:51;101987.50;;;4.24;100.00
33189;BME280;52601;53.070;10.600;2023-01-27T00:15:56;101986.66;;;4.20;100.00
33189;BME280;52601;53.070;10.600;2023-01-27T00:18:41;101979.72;;;4.30;100.00
33189;BME280;52601;53.070;10.600;2023-01-27T00:21:26;101984.06;;;4.10;100.00
33189;BME280;52601;53.070;10.600;2023-01-27T00:24:31;101989.25;;;4.22;100.00
33189;BME280;52601;53.070;10.600;2023-01-27T00:27:22;101993.59;;;4.23;100.00
33189;BME280;52601;53.070;10.600;2023-01-27T00:30:09;101991.00;;;4.11;100.00
33189;BME280;52601;53.070;10.600;2023-01-27T00:32:55;101996.19;;;4.17;100.00
33189;BME280;52601;53.070;10.600;2023-01-27T00:36:05;101996.16;;;4.26;100.00
33189;BME280;52601;53.070;10.600;2023-01-27T00:38:50;102006.56;;;4.17;100.00
33189;BME280;52601;53.070;10.600;2023-01-27T00:41:36;102009.13;;;4.26;100.00
33189;BME280;52601;53.070;10.600;2023-01-27T00:44:22;102004.81;;;4.16;100.00
33189;BME280;52601;53.070;10.600;2023-01-27T00:47:08;102010.03;;;4.25;100.00
33189;BME280;52601;53.070;10.600;2023-01-27T00:49:53;102008.28;;;4.28;100.00
33189;BME280;52601;53.070;10.600;2023-01-27T00:52:39;102008.28;;;4.27;100.00
33189;BME280;52601;53.070;10.600;2023-01-27T00:55:24;102011.75;;;4.29;100.00
33189;BME280;52601;53.070;10.600;2023-01-27T00:58:10;102018.63;;;4.36;100.00
33189;BME280;52601;53.070;10.600;2023-01-27T01:00:57;102020.38;;;4.38;100.00
33189;BME280;52601;53.070;10.600;2023-01-27T01:03:46;102001.38;;;4.23;100.00
33189;BME280;52601;53.070;10.600;2023-01-27T01:06:31;102020.38;;;4.37;100.00
33189;BME280;52601;53.070;10.600;2023-01-27T01:09:16;102032.50;;;4.38;100.00
33189;BME280;52601;53.070;10.600;2023-01-27T01:12:02;102029.88;;;4.44;100.00
33189;BME280;52601;53.070;10.600;2023-01-27T01:14:47;102031.63;;;4.45;100.00
33189;BME280;52601;53.070;10.600;2023-01-27T01:17:33;102022.13;;;4.36;100.00
33189;BME280;52601;53.070;10.600;2023-01-27T01:20:18;102027.31;;;4.35;100.00
33189;BME280;52601;53.070;10.600;2023-01-27T01:23:05;102030.75;;;4.51;100.00
33189;BME280;52601;53.070;10.600;2023-01-27T01:25:52;102032.50;;;4.47;100.00
33189;BME280;52601;53.070;10.600;2023-01-27T01:28:38;102032.50;;;4.47;100.00
33189;BME280;52601;53.070;10.600;2023-01-27T01:31:24;102033.31;;;4.57;100.00
33189;BME280;52601;53.070;10.600;2023-01-27T01:34:09;102033.38;;;4.37;100.00
33189;BME280;52601;53.070;10.600;2023-01-27T01:36:55;102032.47;;;4.53;100.00
33189;BME280;52601;53.070;10.600;2023-01-27T01:39:40;102038.53;;;4.48;100.00
33189;BME280;52601;53.070;10.600;2023-01-27T01:42:25;102035.97;;;4.43;100.00
33189;BME280;52601;53.070;10.600;2023-01-27T01:48:35;102043.75;;;4.43;100.00
33189;BME280;52601;53.070;10.600;2023-01-27T01:51:30;102048.94;;;4.49;100.00
33189;BME280;52601;53.070;10.600;2023-01-27T01:54:28;102042.00;;;4.47;100.00
33189;BME280;52601;53.070;10.600;2023-01-27T01:57:15;102044.59;;;4.57;100.00
33189;BME280;52601;53.070;10.600;2023-01-27T02:00:05;102045.44;;;4.46;100.00
33189;BME280;52601;53.070;10.600;2023-01-27T02:02:51;102037.66;;;4.46;100.00
33189;BME280;52601;53.070;10.600;2023-01-27T02:05:41;102042.88;;;4.47;100.00
33189;BME280;52601;53.070;10.600;2023-01-27T02:08:33;102049.78;;;4.48;100.00
33189;BME280;52601;53.070;10.600;2023-01-27T02:11:19;102050.63;;;4.58;100.00
33189;BME280;52601;53.070;10.600;2023-01-27T02:14:05;102047.13;;;4.68;100.00
33189;BME280;52601;53.070;10.600;2023-01-27T02:16:51;102041.13;;;4.61;100.00
33189;BME280;52601;53.070;10.600;2023-01-27T02:19:48;102053.22;;;4.56;100.00
33189;BME280;52601;53.070;10.600;2023-01-27T02:28:32;102054.94;;;4.71;100.00
33189;BME280;52601;53.070;10.600;2023-01-27T02:31:18;102061.00;;;4.71;100.00
33189;BME280;52601;53.070;10.600;2023-01-27T02:34:08;102058.38;;;4.74;100.00
33189;BME280;52601;53.070;10.600;2023-01-27T02:36:57;102061.84;;;4.76;100.00
33189;BME280;52601;53.070;10.600;2023-01-27T02:39:45;102051.47;;;4.70;100.00
33189;BME280;52601;53.070;10.600;2023-01-27T02:42:31;102054.91;;;4.74;100.00
33189;BME280;52601;53.070;10.600;2023-01-27T02:45:17;102053.19;;;4.73;100.00
33189;BME280;52601;53.070;10.600;2023-01-27T02:48:02;102072.22;;;4.79;100.00
33189;BME280;52601;53.070;10.600;2023-01-27T02:50:47;102069.63;;;4.79;100.00
33189;BME280;52601;53.070;10.600;2023-01-27T02:53:33;102067.03;;;4.72;100.00
33189;BME280;52601;53.070;10.600;2023-01-27T02:56:19;102077.41;;;4.85;100.00
33189;BME280;52601;53.070;10.600;2023-01-27T02:59:04;102072.19;;;4.88;100.00
33189;BME280;52601;53.070;10.600;2023-01-27T03:01:50;102080.88;;;4.80;100.00
33189;BME280;52601;53.070;10.600;2023-01-27T03:04:35;102078.31;;;4.77;100.00
33189;BME280;52601;53.070;10.600;2023-01-27T03:07:23;102078.28;;;4.83;100.00
33189;BME280;52601;53.070;10.600;2023-01-27T03:10:09;102080.88;;;4.81;100.00
33189;BME280;52601;53.070;10.600;2023-01-27T03:12:55;102075.72;;;4.66;100.00
33189;BME280;52601;53.070;10.600;2023-01-27T03:15:40;102080.88;;;4.75;100.00
33189;BME280;52601;53.070;10.600;2023-01-27T03:18:44;102094.75;;;4.70;100.00
33189;BME280;52601;53.070;10.600;2023-01-27T03:21:31;102087.00;;;4.65;100.00
33189;BME280;52601;53.070;10.600;2023-01-27T03:24:17;102088.69;;;4.68;100.00
33189;BME280;52601;53.070;10.600;2023-01-27T03:27:03;102093.00;;;4.73;100.00
33189;BME280;52601;53.070;10.600;2023-01-27T03:29:48;102090.44;;;4.58;100.00
33189;BME280;52601;53.070;10.600;2023-01-27T03:32:40;102097.38;;;4.65;100.00
33189;BME280;52601;53.070;10.600;2023-01-27T03:35:31;102099.97;;;4.62;100.00
33189;BME280;52601;53.070;10.600;2023-01-27T03:38:23;102112.09;;;4.54;100.00
33189;BME280;52601;53.070;10.600;2023-01-27T03:41:27;102108.63;;;4.63;100.00
33189;BME280;52601;53.070;10.600;2023-01-27T03:44:31;102113.81;;;4.64;100.00
33189;BME280;52601;53.070;10.600;2023-01-27T03:47:35;102112.13;;;4.57;100.00
33189;BME280;52601;53.070;10.600;2023-01-27T03:50:20;102122.50;;;4.57;100.00
33189;BME280;52601;53.070;10.600;2023-01-27T03:53:15;102120.75;;;4.50;100.00
33189;BME280;52601;53.070;10.600;2023-01-27T03:56:01;102115.56;;;4.38;100.00
33189;BME280;52601;53.070;10.600;2023-01-27T03:58:47;102125.06;;;4.50;100.00
33189;BME280;52601;53.070;10.600;2023-01-27T04:01:33;102130.28;;;4.48;100.00
33189;BME280;52601;53.070;10.600;2023-01-27T04:04:18;102127.69;;;4.50;100.00
33189;BME280;52601;53.070;10.600;2023-01-27T04:07:22;102140.69;;;4.47;100.00
33189;BME280;52601;53.070;10.600;2023-01-27T04:10:08;102132.00;;;4.34;100.00
33189;BME280;52601;53.070;10.600;2023-01-27T04:12:54;102138.06;;;4.47;100.00
33189;BME280;52601;53.070;10.600;2023-01-27T04:15:40;102135.47;;;4.44;100.00
33189;BME280;52601;53.070;10.600;2023-01-27T04:18:25;102138.09;;;4.45;100.00
33189;BME280;52601;53.070;10.600;2023-01-27T04:21:12;102138.94;;;4.43;100.00
33189;BME280;52601;53.070;10.600;2023-01-27T04:23:57;102137.19;;;4.40;100.00
33189;BME280;52601;53.070;10.600;2023-01-27T04:26:44;102148.47;;;4.33;100.00
33189;BME280;52601;53.070;10.600;2023-01-27T04:29:35;102163.16;;;4.28;100.00
33189;BME280;52601;53.070;10.600;2023-01-27T04:32:20;102144.13;;;4.18;100.00
33189;BME280;52601;53.070;10.600;2023-01-27T04:35:06;102162.31;;;4.23;100.00
33189;BME280;52601;53.070;10.600;2023-01-27T04:37:52;102165.75;;;4.22;100.00
33189;BME280;52601;53.070;10.600;2023-01-27T04:40:39;102166.59;;;4.18;100.00
33189;BME280;52601;53.070;10.600;2023-01-27T04:43:26;102172.69;;;4.29;100.00
33189;BME280;52601;53.070;10.600;2023-01-27T04:46:11;102170.09;;;4.29;100.00
33189;BME280;52601;53.070;10.600;2023-01-27T04:48:56;102177.00;;;4.13;100.00
33189;BME280;52601;53.070;10.600;2023-01-27T04:51:42;102182.19;;;4.21;100.00
33189;BME280;52601;53.070;10.600;2023-01-27T04:54:27;102177.84;;;4.14;100.00
33189;BME280;52601;53.070;10.600;2023-01-27T04:57:13;102192.56;;;4.18;100.00
33189;BME280;52601;53.070;10.600;2023-01-27T04:59:58;102202.06;;;4.16;100.00
33189;BME280;52601;53.070;10.600;2023-01-27T05:02:44;102195.13;;;4.06;100.00
33189;BME280;52601;53.070;10.600;2023-01-27T05:05:29;102202.06;;;4.01;100.00
33189;BME280;52601;53.070;10.600;2023-01-27T05:08:15;102212.41;;;4.04;100.00
33189;BME280;52601;53.070;10.600;2023-01-27T05:11:00;102208.97;;;4.00;100.00
33189;BME280;52601;53.070;10.600;2023-01-27T05:13:46;102219.38;;;4.11;100.00
33189;BME280;52601;53.070;10.600;2023-01-27T05:16:32;102218.50;;;4.01;100.00
33189;BME280;52601;53.070;10.600;2023-01-27T05:19:17;102215.84;;;3.91;100.00
33189;BME280;52601;53.070;10.600;2023-01-27T05:22:03;102221.09;;;4.04;100.00
33189;BME280;52601;53.070;10.600;2023-01-27T05:24:49;102221.94;;;4.00;100.00
33189;BME280;52601;53.070;10.600;2023-01-27T05:27:34;102235.78;;;4.02;100.00
33189;BME280;52601;53.070;10.600;2023-01-27T05:30:20;102224.50;;;3.84;100.00
33189;BME280;52601;53.070;10.600;2023-01-27T05:33:06;102227.94;;;3.92;100.00
33189;BME280;52601;53.070;10.600;2023-01-27T05:35:52;102230.56;;;3.86;100.00
33189;BME280;52601;53.070;10.600;2023-01-27T05:38:38;102236.63;;;3.95;100.00
33189;BME280;52601;53.070;10.600;2023-01-27T05:41:24;102234.88;;;3.93;100.00
33189;BME280;52601;53.070;10.600;2023-01-27T05:44:12;102233.16;;;3.86;100.00
33189;BME280;52601;53.070;10.600;2023-01-27T05:46:58;102236.59;;;3.88;100.00
33189;BME280;52601;53.070;10.600;2023-01-27T05:49:43;102221.03;;;3.92;100.00
33189;BME280;52601;53.070;10.600;2023-01-27T05:52:29;102234.94;;;4.05;100.00
33189;BME280;52601;53.070;10.600;2023-01-27T05:55:14;102236.59;;;3.92;100.00
33189;BME280;52601;53.070;10.600;2023-01-27T05:58:00;102236.59;;;3.92;100.00
33189;BME280;52601;53.070;10.600;2023-01-27T06:00:45;102243.53;;;3.98;100.00
33189;BME280;52601;53.070;10.600;2023-01-27T06:03:31;102235.75;;;3.95;100.00
33189;BME280;52601;53.070;10.600;2023-01-27T06:06:18;102227.09;;;3.88;100.00
33189;BME280;52601;53.070;10.600;2023-01-27T06:09:04;102249.59;;;3.97;100.00
33189;BME280;52601;53.070;10.600;2023-01-27T06:11:49;102240.06;;;3.88;100.00
33189;BME280;52601;53.070;10.600;2023-01-27T06:14:35;102235.75;;;3.90;100.00
33189;BME280;52601;53.070;10.600;2023-01-27T06:17:21;102248.72;;;3.95;100.00
33189;BME280;52601;53.070;10.600;2023-01-27T06:20:07;102244.38;;;3.88;100.00
33189;BME280;52601;53.070;10.600;2023-01-27T06:22:52;102245.28;;;3.91;100.00
33189;BME280;52601;53.070;10.600;2023-01-27T06:25:39;102234.00;;;3.85;100.00
33189;BME280;52601;53.070;10.600;2023-01-27T06:28:25;102247.00;;;3.91;100.00
33189;BME280;52601;53.070;10.600;2023-01-27T06:31:17;102248.72;;;3.95;100.00
33189;BME280;52601;53.070;10.600;2023-01-27T06:34:03;102247.88;;;3.99;100.00
33189;BME280;52601;53.070;10.600;2023-01-27T06:36:48;102252.19;;;4.00;100.00
33189;BME280;52601;53.070;10.600;2023-01-27T06:39:34;102256.50;;;3.96;100.00
33189;BME280;52601;53.070;10.600;2023-01-27T06:42:19;102260.88;;;4.08;100.00
33189;BME280;52601;53.070;10.600;2023-01-27T06:45:05;102258.25;;;4.00;100.00
33189;BME280;52601;53.070;10.600;2023-01-27T06:47:59;102248.72;;;3.93;100.00
33189;BME280;52601;53.070;10.600;2023-01-27T06:50:45;102265.22;;;4.09;100.00
33189;BME280;52601;53.070;10.600;2023-01-27T06:53:31;102278.16;;;4.06;100.00
33189;BME280;52601;53.070;10.600;2023-01-27T06:56:16;102283.38;;;4.04;100.00
33189;BME280;52601;53.070;10.600;2023-01-27T06:59:02;102280.72;;;3.92;100.00
33189;BME280;52601;53.070;10.600;2023-01-27T07:01:47;102292.00;;;3.97;100.00
33189;BME280;52601;53.070;10.600;2023-01-27T07:04:33;102298.94;;;4.01;100.00
33189;BME280;52601;53.070;10.600;2023-01-27T07:07:18;102298.94;;;4.03;100.00
33189;BME280;52601;53.070;10.600;2023-01-27T07:10:05;102303.25;;;4.04;100.00
33189;BME280;52601;53.070;10.600;2023-01-27T07:12:51;102310.16;;;3.99;100.00
33189;BME280;52601;53.070;10.600;2023-01-27T07:15:36;102305.84;;;4.04;100.00
33189;BME280;52601;53.070;10.600;2023-01-27T07:18:22;102312.75;;;4.02;100.00
33189;BME280;52601;53.070;10.600;2023-01-27T07:21:08;102314.50;;;4.06;100.00
33189;BME280;52601;53.070;10.600;2023-01-27T07:23:53;102310.19;;;4.03;100.00
33189;BME280;52601;53.070;10.600;2023-01-27T07:26:39;102316.22;;;4.01;100.00
33189;BME280;52601;53.070;10.600;2023-01-27T07:29:24;102327.44;;;4.00;100.00
33189;BME280;52601;53.070;10.600;2023-01-27T07:32:10;102317.00;;;3.88;100.00
33189;BME280;52601;53.070;10.600;2023-01-27T07:34:56;102342.97;;;3.91;100.00
33189;BME280;52601;53.070;10.600;2023-01-27T07:37:41;102340.47;;;4.09;100.00
33189;BME280;52601;53.070;10.600;2023-01-27T07:40:26;102344.72;;;3.96;100.00
33189;BME280;52601;53.070;10.600;2023-01-27T07:43:12;102346.41;;;3.85;100.00
33189;BME280;52601;53.070;10.600;2023-01-27T07:45:57;102355.94;;;3.91;100.00
33189;BME280;52601;53.070;10.600;2023-01-27T07:48:43;102358.59;;;3.98;100.00
33189;BME280;52601;53.070;10.600;2023-01-27T07:51:28;102363.78;;;3.97;100.00
33189;BME280;52601;53.070;10.600;2023-01-27T07:54:14;102362.91;;;3.93;100.00
33189;BME280;52601;53.070;10.600;2023-01-27T07:56:59;102365.50;;;3.95;100.00
33189;BME280;52601;53.070;10.600;2023-01-27T07:59:48;102370.69;;;3.98;100.00
33189;BME280;52601;53.070;10.600;2023-01-27T08:02:37;102372.47;;;4.06;100.00
33189;BME280;52601;53.070;10.600;2023-01-27T08:05:23;102374.13;;;3.94;100.00
33189;BME280;52601;53.070;10.600;2023-01-27T08:08:09;102377.63;;;3.97;100.00
33189;BME280;52601;53.070;10.600;2023-01-27T08:10:58;102374.97;;;3.90;100.00
33189;BME280;52601;53.070;10.600;2023-01-27T08:13:44;102387.19;;;4.09;100.00
33189;BME280;52601;53.070;10.600;2023-01-27T08:16:29;102382.03;;;4.15;100.00
33189;BME280;52601;53.070;10.600;2023-01-27T08:19:15;102371.66;;;4.15;100.00
33189;BME280;52601;53.070;10.600;2023-01-27T08:22:00;102374.25;;;4.16;100.00
33189;BME280;52601;53.070;10.600;2023-01-27T08:24:47;102391.56;;;4.20;100.00
33189;BME280;52601;53.070;10.600;2023-01-27T08:27:32;102382.13;;;4.33;100.00
33189;BME280;52601;53.070;10.600;2023-01-27T08:30:18;102389.91;;;4.33;100.00
33189;BME280;52601;53.070;10.600;2023-01-27T08:33:04;102387.34;;;4.42;100.00
33189;BME280;52601;53.070;10.600;2023-01-27T08:35:49;102374.41;;;4.54;100.00
33189;BME280;52601;53.070;10.600;2023-01-27T08:38:35;102376.13;;;4.52;100.00
33189;BME280;52601;53.070;10.600;2023-01-27T08:41:23;102385.66;;;4.53;100.00
33189;BME280;52601;53.070;10.600;2023-01-27T08:44:09;102380.44;;;4.49;100.00
33189;BME280;52601;53.070;10.600;2023-01-27T08:46:54;102387.34;;;4.42;100.00
33189;BME280;52601;53.070;10.600;2023-01-27T08:49:40;102387.34;;;4.39;100.00
33189;BME280;52601;53.070;10.600;2023-01-27T08:52:25;102379.56;;;4.48;100.00
33189;BME280;52601;53.070;10.600;2023-01-27T08:55:12;102396.06;;;4.62;100.00
33189;BME280;52601;53.070;10.600;2023-01-27T08:57:57;102386.56;;;4.64;100.00
33189;BME280;52601;53.070;10.600;2023-01-27T09:00:43;102396.97;;;4.79;100.00
33189;BME280;52601;53.070;10.600;2023-01-27T09:03:29;102405.69;;;4.99;100.00
33189;BME280;52601;53.070;10.600;2023-01-27T09:06:15;102404.00;;;5.33;100.00
33189;BME280;52601;53.070;10.600;2023-01-27T09:09:01;102401.41;;;5.09;100.00
33189;BME280;52601;53.070;10.600;2023-01-27T09:11:56;102402.28;;;5.26;100.00
33189;BME280;52601;53.070;10.600;2023-01-27T09:14:42;102404.88;;;5.12;100.00
33189;BME280;52601;53.070;10.600;2023-01-27T09:17:27;102409.16;;;5.07;100.00
33189;BME280;52601;53.070;10.600;2023-01-27T09:20:13;102405.69;;;4.99;100.00
33189;BME280;52601;53.070;10.600;2023-01-27T09:22:59;102414.38;;;4.97;100.00
33189;BME280;52601;53.070;10.600;2023-01-27T09:25:45;102406.53;;;4.85;100.00
33189;BME280;52601;53.070;10.600;2023-01-27T09:28:30;102405.66;;;4.80;100.00
33189;BME280;52601;53.070;10.600;2023-01-27T09:31:16;102409.97;;;4.79;100.00
33189;BME280;52601;53.070;10.600;2023-01-27T09:34:01;102409.97;;;4.67;100.00
33189;BME280;52601;53.070;10.600;2023-01-27T09:36:52;102416.97;;;4.91;100.00
33189;BME280;52601;53.070;10.600;2023-01-27T09:39:43;102419.56;;;4.94;100.00
33189;BME280;52601;53.070;10.600;2023-01-27T09:42:40;102421.25;;;4.87;100.00
33189;BME280;52601;53.070;10.600;2023-01-27T09:45:42;102418.63;;;4.74;100.00
33189;BME280;52601;53.070;10.600;2023-01-27T09:52:08;102426.41;;;4.63;100.00
33189;BME280;52601;53.070;10.600;2023-01-27T09:55:10;102432.44;;;4.62;100.00
33189;BME280;52601;53.070;10.600;2023-01-27T10:04:27;102440.16;;;4.46;100.00
33189;BME280;52601;53.070;10.600;2023-01-27T10:10:37;102439.34;;;4.56;100.00
33189;BME280;52601;53.070;10.600;2023-01-27T10:13:47;102432.38;;;4.52;100.00
33189;BME280;52601;53.070;10.600;2023-01-27T10:28:50;102430.72;;;4.64;100.00
33189;BME280;52601;53.070;10.600;2023-01-27T10:31:57;102431.63;;;4.69;100.00
33189;BME280;52601;53.070;10.600;2023-01-27T10:40:35;102435.88;;;4.57;100.00
33189;BME280;52601;53.070;10.600;2023-01-27T10:46:50;102429.72;;;4.35;100.00
33189;BME280;52601;53.070;10.600;2023-01-27T10:49:47;102440.16;;;4.46;100.00
33189;BME280;52601;53.070;10.600;2023-01-27T10:52:45;102441.00;;;4.42;100.00
33189;BME280;52601;53.070;10.600;2023-01-27T10:55:44;102446.16;;;4.32;100.00
33189;BME280;52601;53.070;10.600;2023-01-27T10:58:45;102447.06;;;4.39;100.00
33189;BME280;52601;53.070;10.600;2023-01-27T11:01:35;102441.09;;;4.64;100.00
33189;BME280;52601;53.070;10.600;2023-01-27T11:04:34;102442.00;;;4.72;100.00
33189;BME280;52601;53.070;10.600;2023-01-27T11:07:21;102442.91;;;4.80;100.00
33189;BME280;52601;53.070;10.600;2023-01-27T11:10:14;102443.78;;;4.90;100.00
33189;BME280;52601;53.070;10.600;2023-01-27T11:13:02;102444.66;;;4.90;100.00
33189;BME280;52601;53.070;10.600;2023-01-27T11:15:49;102441.22;;;4.94;100.00
33189;BME280;52601;53.070;10.600;2023-01-27T11:18:36;102444.66;;;4.90;100.00
33189;BME280;52601;53.070;10.600;2023-01-27T11:21:25;102443.72;;;4.69;100.00
33189;BME280;52601;53.070;10.600;2023-01-27T11:24:21;102436.00;;;4.88;99.67
33189;BME280;52601;53.070;10.600;2023-01-27T11:27:24;102435.16;;;4.92;98.96
33189;BME280;52601;53.070;10.600;2023-01-27T11:30:31;102436.06;;;5.15;100.00
33189;BME280;52601;53.070;10.600;2023-01-27T11:36:08;102435.22;;;5.32;95.54
33189;BME280;52601;53.070;10.600;2023-01-27T11:38:54;102427.38;;;5.13;95.40
33189;BME280;52601;53.070;10.600;2023-01-27T11:41:47;102442.13;;;5.16;97.42
33189;BME280;52601;53.070;10.600;2023-01-27T11:44:33;102423.97;;;5.52;94.30
33189;BME280;52601;53.070;10.600;2023-01-27T11:47:26;102424.81;;;5.51;92.22
33189;BME280;52601;53.070;10.600;2023-01-27T11:50:14;102428.28;;;5.52;91.54
33189;BME280;52601;53.070;10.600;2023-01-27T11:56:07;102417.03;;;5.62;94.72
33189;BME280;52601;53.070;10.600;2023-01-27T11:59:02;102427.41;;;5.65;92.57
33189;BME280;52601;53.070;10.600;2023-01-27T12:01:53;102422.22;;;5.54;93.95
33189;BME280;52601;53.070;10.600;2023-01-27T12:05:02;102418.75;;;5.46;92.75
33189;BME280;52601;53.070;10.600;2023-01-27T12:07:53;102425.69;;;5.37;92.85
33189;BME280;52601;53.070;10.600;2023-01-27T12:10:40;102428.28;;;5.26;91.96
33189;BME280;52601;53.070;10.600;2023-01-27T12:13:28;102425.66;;;5.21;90.61
33189;BME280;52601;53.070;10.600;2023-01-27T12:16:14;102417.03;;;5.36;91.01
33189;BME280;52601;53.070;10.600;2023-01-27T12:19:02;102422.22;;;5.48;91.01
33189;BME280;52601;53.070;10.600;2023-01-27T12:21:50;102417.91;;;5.37;89.31
33189;BME280;52601;53.070;10.600;2023-01-27T12:24:40;102408.38;;;5.39;89.11
33189;BME280;52601;53.070;10.600;2023-01-27T12:27:38;102417.88;;;5.41;89.00
33189;BME280;52601;53.070;10.600;2023-01-27T12:30:29;102417.00;;;5.25;89.00
33189;BME280;52601;53.070;10.600;2023-01-27T12:33:37;102418.75;;;5.30;90.73
33189;BME280;52601;53.070;10.600;2023-01-27T12:36:23;102414.41;;;5.16;92.76
33189;BME280;52601;53.070;10.600;2023-01-27T12:39:41;102415.22;;;5.02;92.83
33189;BME280;52601;53.070;10.600;2023-01-27T12:42:43;102415.22;;;4.94;94.48
33189;BME280;52601;53.070;10.600;2023-01-27T12:45:32;102404.78;;;4.76;93.41
33189;BME280;52601;53.070;10.600;2023-01-27T12:48:22;102410.00;;;4.82;93.25
33189;BME280;52601;53.070;10.600;2023-01-27T12:51:20;102413.38;;;4.60;91.48
33189;BME280;52601;53.070;10.600;2023-01-27T12:54:23;102420.31;;;4.55;90.99
33189;BME280;52601;53.070;10.600;2023-01-27T12:57:15;102421.13;;;4.48;92.36
33189;BME280;52601;53.070;10.600;2023-01-27T13:00:03;102407.34;;;4.66;90.01
33189;BME280;52601;53.070;10.600;2023-01-27T13:02:48;102409.09;;;4.68;88.12
33189;BME280;52601;53.070;10.600;2023-01-27T13:05:36;102415.13;;;4.63;88.25
33189;BME280;52601;53.070;10.600;2023-01-27T13:08:24;102418.63;;;4.72;89.90
33189;BME280;52601;53.070;10.600;2023-01-27T13:11:10;102425.53;;;4.66;90.01
33189;BME280;52601;53.070;10.600;2023-01-27T13:13:57;102418.56;;;4.53;92.66
33189;BME280;52601;53.070;10.600;2023-01-27T13:16:50;102427.25;;;4.70;92.35
33189;BME280;52601;53.070;10.600;2023-01-27T13:19:42;102425.53;;;4.73;91.54
33189;BME280;52601;53.070;10.600;2023-01-27T13:22:36;102427.19;;;4.50;93.19
33189;BME280;52601;53.070;10.600;2023-01-27T13:34:45;102431.47;;;4.42;93.73
33189;BME280;52601;53.070;10.600;2023-01-27T13:37:58;102429.69;;;4.29;92.78
33189;BME280;52601;53.070;10.600;2023-01-27T13:40:45;102434.84;;;4.24;92.59
33189;BME280;52601;53.070;10.600;2023-01-27T13:43:37;102434.84;;;4.24;93.84
33189;BME280;52601;53.070;10.600;2023-01-27T13:46:32;102427.13;;;4.36;91.86
33189;BME280;52601;53.070;10.600;2023-01-27T13:49:31;102422.75;;;4.29;91.70
33189;BME280;52601;53.070;10.600;2023-01-27T13:52:18;102415.88;;;4.34;92.39
33189;BME280;52601;53.070;10.600;2023-01-27T13:55:04;102409.84;;;4.40;90.60
33189;BME280;52601;53.070;10.600;2023-01-27T13:57:59;102425.34;;;4.25;90.32
33189;BME280;52601;53.070;10.600;2023-01-27T14:01:23;102427.94;;;4.26;91.75
33189;BME280;52601;53.070;10.600;2023-01-27T14:04:24;102421.91;;;4.32;91.96
33189;BME280;52601;53.070;10.600;2023-01-27T14:07:46;102437.56;;;4.44;90.61
33189;BME280;52601;53.070;10.600;2023-01-27T14:10:58;102434.03;;;4.30;88.91
33189;BME280;52601;53.070;10.600;2023-01-27T14:14:13;102436.63;;;4.31;89.38
33189;BME280;52601;53.070;10.600;2023-01-27T14:17:28;102439.19;;;4.22;89.33
33189;BME280;52601;53.070;10.600;2023-01-27T14:26:58;102431.41;;;4.30;87.99
33189;BME280;52601;53.070;10.600;2023-01-27T14:29:56;102426.16;;;4.15;88.20
33189;BME280;52601;53.070;10.600;2023-01-27T14:36:03;102439.13;;;4.15;88.87
33189;BME280;52601;53.070;10.600;2023-01-27T14:42:17;102435.69;;;4.17;90.09
33189;BME280;52601;53.070;10.600;2023-01-27T14:45:33;102443.44;;;4.13;88.79
33189;BME280;52601;53.070;10.600;2023-01-27T14:49:02;102435.66;;;4.16;88.41
33189;BME280;52601;53.070;10.600;2023-01-27T14:54:40;102436.53;;;4.13;87.88
33189;BME280;52601;53.070;10.600;2023-01-27T14:58:05;102434.81;;;4.20;86.12
33189;BME280;52601;53.070;10.600;2023-01-27T15:01:07;102432.16;;;4.03;88.34
33189;BME280;52601;53.070;10.600;2023-01-27T15:04:09;102437.31;;;3.99;87.98
33189;BME280;52601;53.070;10.600;2023-01-27T15:07:06;102430.34;;;3.93;86.57
33189;BME280;52601;53.070;10.600;2023-01-27T15:13:26;102441.69;;;4.09;87.59
33189;BME280;52601;53.070;10.600;2023-01-27T15:22:44;102437.22;;;3.90;86.55
33189;BME280;52601;53.070;10.600;2023-01-27T15:25:37;102441.53;;;3.85;87.05
33189;BME280;52601;53.070;10.600;2023-01-27T15:28:27;102436.34;;;3.86;87.53
33189;BME280;52601;53.070;10.600;2023-01-27T15:37:00;102458.75;;;3.77;88.13
33189;BME280;52601;53.070;10.600;2023-01-27T15:45:54;102466.47;;;3.69;83.83
33189;BME280;52601;53.070;10.600;2023-01-27T15:48:40;102470.63;;;3.52;85.23
33189;BME280;52601;53.070;10.600;2023-01-27T15:51:28;102473.38;;;3.66;87.12
33189;BME280;52601;53.070;10.600;2023-01-27T15:54:18;102459.44;;;3.52;87.56
33189;BME280;52601;53.070;10.600;2023-01-27T15:57:22;102474.16;;;3.56;87.16
33189;BME280;52601;53.070;10.600;2023-01-27T16:00:27;102476.72;;;3.54;86.23
33189;BME280;52601;53.070;10.600;2023-01-27T16:03:22;102469.69;;;3.39;86.60
33189;BME280;52601;53.070;10.600;2023-01-27T16:06:15;102473.09;;;3.37;86.77
33189;BME280;52601;53.070;10.600;2023-01-27T16:09:06;102473.94;;;3.33;89.25
33189;BME280;52601;53.070;10.600;2023-01-27T16:20:55;102490.44;;;3.41;90.37
33189;BME280;52601;53.070;10.600;2023-01-27T16:26:35;102494.78;;;3.42;90.34
33189;BME280;52601;53.070;10.600;2023-01-27T16:29:35;102510.34;;;3.43;90.00